createdAt,value
2022-12-08T00:02:05.954Z,2.89
2022-12-08T00:04:32.368Z,2.86
2022-12-08T00:06:58.534Z,2.96
2022-12-08T00:09:24.782Z,2.88
2022-12-08T00:11:50.981Z,2.90
2022-12-08T00:14:17.152Z,2.92
2022-12-08T00:16:44.584Z,2.88
2022-12-08T00:19:10.801Z,2.78
2022-12-08T00:21:36.989Z,2.76
2022-12-08T00:24:03.245Z,2.87
2022-12-08T00:26:29.439Z,2.81
2022-12-08T00:29:01.161Z,2.76
2022-12-08T00:31:27.412Z,2.71
2022-12-08T00:33:53.618Z,2.68
2022-12-08T00:36:19.847Z,2.69
2022-12-08T00:38:47.979Z,2.69
2022-12-08T00:41:14.110Z,2.64
2022-12-08T00:43:40.282Z,2.58
2022-12-08T00:46:06.596Z,2.64
2022-12-08T00:48:32.817Z,2.62
2022-12-08T00:50:59.020Z,2.70
2022-12-08T00:53:25.175Z,2.67
2022-12-08T00:55:51.439Z,2.71
2022-12-08T00:58:17.629Z,2.74
2022-12-08T01:00:43.876Z,2.70
2022-12-08T01:03:10.200Z,2.71
2022-12-08T01:05:36.474Z,2.68
2022-12-08T01:08:02.677Z,2.74
2022-12-08T01:10:28.895Z,2.71
2022-12-08T01:12:55.046Z,2.68
2022-12-08T01:15:21.276Z,2.66
2022-12-08T01:17:47.417Z,2.68
2022-12-08T01:20:13.567Z,2.70
2022-12-08T01:22:39.728Z,2.72
2022-12-08T01:25:06.186Z,2.62
2022-12-08T01:27:32.302Z,2.60
2022-12-08T01:29:58.466Z,2.53
2022-12-08T01:32:24.625Z,2.59
2022-12-08T01:34:50.837Z,2.52
2022-12-08T01:37:17.034Z,2.52
2022-12-08T01:39:43.256Z,2.50
2022-12-08T01:42:09.405Z,2.47
2022-12-08T01:44:35.530Z,2.52
2022-12-08T01:47:01.701Z,2.53
2022-12-08T01:49:27.919Z,2.51
2022-12-08T01:51:54.056Z,2.54
2022-12-08T01:54:20.190Z,2.50
2022-12-08T01:56:46.361Z,2.41
2022-12-08T01:59:12.547Z,2.43
2022-12-08T02:01:38.790Z,2.40
2022-12-08T02:04:05.086Z,2.46
2022-12-08T02:06:31.275Z,2.48
2022-12-08T02:08:57.450Z,2.44
2022-12-08T02:11:23.695Z,2.46
2022-12-08T02:13:49.854Z,2.46
2022-12-08T02:16:16.091Z,2.38
2022-12-08T02:18:42.359Z,2.34
2022-12-08T02:21:08.481Z,2.30
2022-12-08T02:23:34.705Z,2.35
2022-12-08T02:26:00.851Z,2.27
2022-12-08T02:28:26.964Z,2.26
2022-12-08T02:30:53.174Z,2.28
2022-12-08T02:33:19.429Z,2.26
2022-12-08T02:35:45.629Z,2.26
2022-12-08T02:38:11.785Z,2.27
2022-12-08T02:40:37.953Z,2.23
2022-12-08T02:43:04.108Z,2.24
2022-12-08T02:45:30.248Z,2.25
2022-12-08T02:47:56.414Z,2.19
2022-12-08T02:50:22.620Z,2.20
2022-12-08T02:52:48.789Z,2.20
2022-12-08T02:55:14.964Z,2.24
2022-12-08T02:57:41.137Z,2.22
2022-12-08T03:00:07.669Z,2.19
2022-12-08T03:02:34.141Z,2.15
2022-12-08T03:05:00.478Z,2.19
2022-12-08T03:07:26.668Z,2.13
2022-12-08T03:09:52.845Z,2.12
2022-12-08T03:12:19.035Z,2.07
2022-12-08T03:14:45.202Z,2.11
2022-12-08T03:17:11.388Z,2.05
2022-12-08T03:19:37.576Z,2.05
2022-12-08T03:22:03.765Z,2.09
2022-12-08T03:24:29.901Z,2.08
2022-12-08T03:26:56.065Z,2.09
2022-12-08T03:29:22.261Z,2.11
2022-12-08T03:31:48.426Z,2.10
2022-12-08T03:34:14.552Z,2.10
2022-12-08T03:36:40.717Z,2.13
2022-12-08T03:39:06.925Z,2.09
2022-12-08T03:41:33.143Z,2.09
2022-12-08T03:43:59.315Z,2.06
2022-12-08T03:48:50.577Z,2.12
2022-12-08T03:51:16.753Z,2.08
2022-12-08T03:53:42.952Z,2.03
2022-12-08T03:56:09.153Z,2.03
2022-12-08T03:58:37.602Z,2.04
2022-12-08T04:01:03.878Z,2.01
2022-12-08T04:03:30.028Z,2.01
2022-12-08T04:05:56.216Z,1.99
2022-12-08T04:08:22.443Z,1.98
2022-12-08T04:10:48.613Z,1.97
2022-12-08T04:13:14.740Z,1.95
2022-12-08T04:15:40.964Z,1.91
2022-12-08T04:18:07.150Z,1.93
2022-12-08T04:20:33.310Z,1.99
2022-12-08T04:22:59.533Z,1.93
2022-12-08T04:25:25.917Z,1.90
2022-12-08T04:27:52.097Z,1.88
2022-12-08T04:30:18.302Z,1.89
2022-12-08T04:32:47.517Z,1.87
2022-12-08T04:35:13.966Z,1.90
2022-12-08T04:37:40.111Z,1.82
2022-12-08T04:40:06.557Z,1.82
2022-12-08T04:42:32.941Z,1.87
2022-12-08T04:44:59.141Z,1.85
2022-12-08T04:47:25.297Z,1.83
2022-12-08T04:49:51.499Z,1.82
2022-12-08T04:52:17.751Z,1.80
2022-12-08T04:54:43.885Z,1.83
2022-12-08T04:57:10.113Z,1.86
2022-12-08T04:59:36.233Z,1.80
2022-12-08T05:02:02.552Z,1.80
2022-12-08T05:04:28.898Z,1.80
2022-12-08T05:06:55.019Z,1.79
2022-12-08T05:09:21.160Z,1.65
2022-12-08T05:11:49.186Z,1.84
2022-12-08T05:14:15.551Z,1.93
2022-12-08T05:16:41.725Z,1.93
2022-12-08T05:19:07.997Z,1.96
2022-12-08T05:21:34.159Z,1.95
2022-12-08T05:24:00.422Z,1.95
2022-12-08T05:26:26.571Z,2.00
2022-12-08T05:28:52.684Z,2.08
2022-12-08T05:31:18.922Z,2.06
2022-12-08T05:33:45.161Z,2.07
2022-12-08T05:36:11.273Z,2.09
2022-12-08T05:38:37.419Z,2.09
2022-12-08T05:41:03.534Z,2.07
2022-12-08T05:43:29.717Z,2.18
2022-12-08T05:45:56.047Z,2.05
2022-12-08T05:48:22.269Z,1.93
2022-12-08T05:50:48.427Z,1.95
2022-12-08T05:53:14.546Z,1.97
2022-12-08T05:55:40.743Z,1.93
2022-12-08T05:58:08.104Z,1.91
2022-12-08T06:00:34.373Z,1.85
2022-12-08T06:03:00.631Z,1.83
2022-12-08T06:05:26.899Z,1.83
2022-12-08T06:07:53.081Z,1.88
2022-12-08T06:10:19.240Z,1.91
2022-12-08T06:12:45.442Z,1.90
2022-12-08T06:15:11.656Z,1.99
2022-12-08T06:17:37.775Z,2.03
2022-12-08T06:20:04.212Z,2.00
2022-12-08T06:22:30.680Z,2.03
2022-12-08T06:24:56.842Z,2.06
2022-12-08T06:27:23.032Z,2.09
2022-12-08T06:29:49.184Z,2.07
2022-12-08T06:32:15.446Z,2.13
2022-12-08T06:34:41.637Z,2.05
2022-12-08T06:37:07.824Z,2.05
2022-12-08T06:39:34.009Z,2.06
2022-12-08T06:42:00.196Z,2.15
2022-12-08T06:44:27.604Z,2.10
2022-12-08T06:46:53.845Z,2.09
2022-12-08T06:49:20.119Z,2.13
2022-12-08T06:51:53.376Z,2.13
2022-12-08T06:54:22.817Z,2.14
2022-12-08T06:56:49.051Z,2.18
2022-12-08T06:59:15.312Z,2.25
2022-12-08T07:01:41.603Z,2.30
2022-12-08T07:04:07.805Z,2.30
2022-12-08T07:06:33.945Z,2.36
2022-12-08T07:09:00.157Z,2.33
2022-12-08T07:11:26.290Z,2.38
2022-12-08T07:13:52.494Z,2.43
2022-12-08T07:16:18.705Z,2.41
2022-12-08T07:18:44.924Z,2.40
2022-12-08T07:21:11.060Z,2.43
2022-12-08T07:23:37.227Z,2.42
2022-12-08T07:26:03.970Z,2.40
2022-12-08T07:28:30.201Z,2.36
2022-12-08T07:30:56.400Z,2.43
2022-12-08T07:33:22.654Z,2.44
2022-12-08T07:35:49.461Z,2.43
2022-12-08T07:38:15.718Z,2.45
2022-12-08T07:40:41.866Z,2.45
2022-12-08T07:43:08.032Z,2.53
2022-12-08T07:45:34.227Z,2.57
2022-12-08T07:48:00.429Z,2.55
2022-12-08T07:50:26.620Z,2.57
2022-12-08T07:52:52.846Z,2.54
2022-12-08T07:55:19.084Z,2.63
2022-12-08T07:57:45.269Z,2.71
2022-12-08T08:00:12.867Z,2.73
2022-12-08T08:02:39.169Z,2.75
2022-12-08T08:05:05.606Z,2.72
2022-12-08T08:07:31.844Z,2.79
2022-12-08T08:09:58.056Z,2.83
2022-12-08T08:12:32.602Z,2.74
2022-12-08T08:14:59.020Z,2.71
2022-12-08T08:17:25.333Z,2.75
2022-12-08T08:19:51.599Z,2.80
2022-12-08T08:22:17.762Z,2.78
2022-12-08T08:24:45.248Z,2.81
2022-12-08T08:27:11.547Z,2.80
2022-12-08T08:29:37.739Z,2.77
2022-12-08T08:32:03.886Z,2.80
2022-12-08T08:34:30.064Z,2.84
2022-12-08T08:36:56.274Z,2.94
2022-12-08T08:39:22.427Z,2.96
2022-12-08T08:41:48.618Z,2.99
2022-12-08T08:44:14.830Z,3.07
2022-12-08T08:46:41.198Z,3.04
2022-12-08T08:49:07.446Z,3.12
2022-12-08T08:51:33.666Z,3.10
2022-12-08T08:53:59.874Z,3.14
2022-12-08T08:56:26.101Z,3.20
2022-12-08T08:58:52.281Z,3.26
2022-12-08T09:01:18.518Z,3.45
2022-12-08T09:03:44.824Z,3.58
2022-12-08T09:06:10.976Z,3.64
2022-12-08T09:08:37.165Z,3.68
2022-12-08T09:11:03.346Z,3.77
2022-12-08T09:13:29.482Z,3.74
2022-12-08T09:15:55.757Z,3.69
2022-12-08T09:18:22.030Z,3.76
2022-12-08T09:20:48.229Z,3.80
2022-12-08T09:23:14.406Z,3.85
2022-12-08T09:25:40.591Z,3.97
2022-12-08T09:28:06.758Z,4.01
2022-12-08T09:30:32.953Z,4.00
2022-12-08T09:32:59.108Z,4.00
2022-12-08T09:35:25.229Z,3.89
2022-12-08T09:37:51.391Z,4.15
2022-12-08T09:40:17.569Z,4.10
2022-12-08T09:42:43.884Z,4.18
2022-12-08T09:45:10.075Z,4.29
2022-12-08T09:47:36.576Z,4.43
2022-12-08T09:50:03.566Z,4.45
2022-12-08T09:52:30.024Z,4.56
2022-12-08T09:54:56.207Z,4.53
2022-12-08T09:57:22.403Z,4.54
2022-12-08T09:59:48.539Z,4.58
2022-12-08T10:02:14.807Z,4.84
2022-12-08T10:04:41.101Z,4.66
2022-12-08T10:07:07.350Z,4.92
2022-12-08T10:09:33.558Z,4.90
2022-12-08T10:11:59.764Z,4.79
2022-12-08T10:14:26.057Z,4.98
2022-12-08T10:16:52.296Z,5.21
2022-12-08T10:19:18.526Z,5.29
2022-12-08T10:21:44.682Z,5.42
2022-12-08T10:24:10.828Z,5.44
2022-12-08T10:26:36.963Z,5.34
2022-12-08T10:29:03.903Z,5.40
2022-12-08T10:31:30.157Z,5.29
2022-12-08T10:33:56.360Z,5.76
2022-12-08T10:36:22.566Z,6.01
2022-12-08T10:38:48.687Z,5.85
2022-12-08T10:41:14.895Z,5.69
2022-12-08T10:43:41.045Z,5.51
2022-12-08T10:46:07.313Z,5.29
2022-12-08T10:48:33.582Z,5.04
2022-12-08T10:50:59.711Z,4.98
2022-12-08T10:53:25.881Z,4.97
2022-12-08T10:55:52.026Z,4.93
2022-12-08T10:58:18.279Z,5.12
2022-12-08T11:00:44.500Z,5.12
2022-12-08T11:03:10.771Z,5.20
2022-12-08T11:05:36.958Z,5.22
2022-12-08T11:08:03.205Z,5.01
2022-12-08T11:10:29.427Z,5.23
2022-12-08T11:12:55.618Z,5.15
2022-12-08T11:15:21.749Z,5.12
2022-12-08T11:17:49.359Z,5.22
2022-12-08T11:20:17.284Z,5.26
2022-12-08T11:22:43.550Z,5.33
2022-12-08T11:25:09.677Z,5.26
2022-12-08T11:27:35.908Z,5.35
2022-12-08T11:30:02.370Z,5.26
2022-12-08T11:32:28.809Z,5.44
2022-12-08T11:34:55.015Z,5.66
2022-12-08T11:37:21.256Z,5.73
2022-12-08T11:39:47.389Z,5.51
2022-12-08T11:42:13.524Z,5.60
2022-12-08T11:44:39.720Z,5.46
2022-12-08T11:47:05.884Z,5.63
2022-12-08T11:49:32.003Z,5.74
2022-12-08T11:51:58.140Z,5.60
2022-12-08T11:54:24.312Z,5.54
2022-12-08T11:56:50.526Z,5.43
2022-12-08T11:59:16.667Z,5.52
2022-12-08T12:01:42.959Z,5.40
2022-12-08T12:04:09.156Z,5.33
2022-12-08T12:06:53.706Z,5.41
2022-12-08T12:09:21.150Z,5.49
2022-12-08T12:11:47.336Z,5.49
2022-12-08T12:14:13.485Z,5.50
2022-12-08T12:16:39.701Z,5.63
2022-12-08T12:19:05.878Z,5.45
2022-12-08T12:21:32.034Z,5.54
2022-12-08T12:23:58.219Z,5.75
2022-12-08T12:26:24.430Z,5.64
2022-12-08T12:28:50.561Z,5.62
2022-12-08T12:31:16.798Z,5.59
2022-12-08T12:33:43.057Z,5.58
2022-12-08T12:36:09.255Z,5.57
2022-12-08T13:00:41.641Z,5.30
2022-12-08T13:03:07.937Z,5.29
2022-12-08T13:05:34.123Z,5.53
2022-12-08T13:08:00.353Z,5.62
2022-12-08T13:10:26.560Z,5.76
2022-12-08T13:12:52.697Z,5.84
2022-12-08T13:15:18.880Z,5.84
2022-12-08T13:17:45.066Z,5.91
2022-12-08T13:20:11.618Z,5.88
2022-12-08T13:22:37.805Z,5.65
2022-12-08T13:25:04.038Z,5.46
2022-12-08T13:27:30.232Z,5.55
2022-12-08T13:29:56.405Z,5.55
2022-12-08T13:32:22.563Z,5.43
2022-12-08T13:34:48.683Z,5.49
2022-12-08T13:37:14.978Z,5.40
2022-12-08T13:39:41.145Z,5.33
2022-12-08T13:42:07.343Z,5.35
2022-12-08T13:47:35.320Z,5.29
2022-12-08T13:58:20.510Z,5.15
2022-12-08T14:00:46.696Z,5.05
2022-12-08T14:03:12.982Z,5.05
2022-12-08T14:06:10.507Z,5.13
2022-12-08T14:08:51.044Z,5.07
2022-12-08T14:11:11.422Z,5.15
2022-12-08T14:13:37.571Z,5.17
2022-12-08T14:16:03.747Z,5.11
2022-12-08T14:18:29.920Z,5.20
2022-12-08T14:21:19.856Z,5.16
2022-12-08T14:23:42.222Z,4.94
2022-12-08T14:26:08.349Z,4.84
2022-12-08T14:28:35.504Z,4.83
2022-12-08T14:31:04.002Z,4.72
2022-12-08T14:33:30.240Z,4.83
2022-12-08T14:35:56.377Z,4.67
2022-12-08T14:38:22.576Z,4.66
2022-12-08T14:40:48.815Z,4.66
2022-12-08T14:43:14.987Z,4.67
2022-12-08T14:45:41.153Z,4.59
2022-12-08T14:48:07.467Z,4.53
2022-12-08T14:50:33.696Z,4.43
2022-12-08T14:52:59.907Z,4.37
2022-12-08T14:55:26.099Z,4.36
2022-12-08T14:57:52.284Z,4.32
2022-12-08T15:00:18.443Z,4.34
2022-12-08T15:02:44.566Z,4.28
2022-12-08T15:05:10.811Z,4.23
2022-12-08T15:07:37.099Z,4.20
2022-12-08T15:10:03.544Z,4.18
2022-12-08T15:12:29.945Z,4.17
2022-12-08T15:14:56.145Z,4.07
2022-12-08T15:17:22.297Z,3.95
2022-12-08T15:19:48.437Z,3.86
2022-12-08T15:22:14.679Z,3.76
2022-12-08T15:24:40.854Z,3.65
2022-12-08T15:27:06.983Z,3.56
2022-12-08T15:29:33.173Z,3.53
2022-12-08T15:31:59.300Z,3.51
2022-12-08T15:34:25.490Z,3.54
2022-12-08T15:36:51.657Z,3.56
2022-12-08T15:39:17.862Z,3.63
2022-12-08T15:41:44.011Z,3.71
2022-12-08T15:44:10.225Z,3.69
2022-12-08T15:46:36.474Z,3.72
2022-12-08T15:49:02.707Z,3.71
2022-12-08T15:51:28.904Z,3.74
2022-12-08T15:53:55.034Z,3.70
2022-12-08T15:56:28.737Z,3.67
2022-12-08T15:58:57.026Z,3.73
2022-12-08T16:01:24.113Z,3.79
2022-12-08T16:09:26.386Z,4.03
2022-12-08T16:12:09.948Z,3.98
2022-12-08T16:17:22.733Z,3.85
2022-12-08T16:19:48.919Z,3.75
2022-12-08T16:22:52.376Z,3.66
2022-12-08T16:25:14.679Z,3.60
2022-12-08T16:28:01.172Z,3.52
2022-12-08T16:30:29.577Z,3.51
2022-12-08T16:32:55.703Z,3.61
2022-12-08T16:35:21.884Z,3.55
2022-12-08T16:37:48.045Z,3.59
2022-12-08T16:40:14.210Z,3.58
2022-12-08T16:42:40.381Z,3.47
2022-12-08T16:45:06.869Z,3.43
2022-12-08T16:47:33.193Z,3.46
2022-12-08T16:49:59.709Z,3.43
2022-12-08T16:52:25.850Z,3.38
2022-12-08T16:54:52.031Z,3.37
2022-12-08T16:57:18.243Z,3.36
2022-12-08T16:59:44.400Z,3.33
2022-12-08T17:02:16.180Z,3.32
2022-12-08T17:04:42.708Z,3.31
2022-12-08T17:07:08.955Z,3.30
2022-12-08T17:09:35.083Z,3.28
2022-12-08T17:12:04.043Z,3.31
2022-12-08T17:14:30.498Z,3.30
2022-12-08T17:16:56.737Z,3.32
2022-12-08T17:19:22.922Z,3.30
2022-12-08T17:21:49.064Z,3.32
2022-12-08T17:24:20.200Z,3.33
2022-12-08T17:26:47.904Z,3.30
2022-12-08T17:29:14.090Z,3.30
2022-12-08T17:31:40.274Z,3.35
2022-12-08T17:34:06.431Z,3.35
2022-12-08T17:36:32.637Z,3.32
2022-12-08T17:38:58.825Z,3.37
2022-12-08T17:41:25.008Z,3.39
2022-12-08T17:43:51.163Z,3.38
2022-12-08T17:46:17.385Z,3.35
2022-12-08T17:48:43.588Z,3.34
2022-12-08T17:51:09.733Z,3.37
2022-12-08T17:53:37.491Z,3.35
2022-12-08T17:56:03.880Z,3.35
2022-12-08T17:58:30.105Z,3.32
2022-12-08T18:00:56.289Z,3.32
2022-12-08T18:03:22.539Z,3.30
2022-12-08T18:05:48.701Z,3.28
2022-12-08T18:08:14.961Z,3.36
2022-12-08T18:10:41.298Z,3.30
2022-12-08T18:13:07.512Z,3.27
2022-12-08T18:15:37.572Z,3.25
2022-12-08T18:18:05.411Z,3.22
2022-12-08T18:20:31.533Z,3.24
2022-12-08T18:22:57.698Z,3.27
2022-12-08T18:25:23.930Z,3.29
2022-12-08T18:27:50.097Z,3.30
2022-12-08T18:30:16.221Z,3.23
2022-12-08T18:32:42.342Z,3.22
2022-12-08T18:35:08.470Z,3.20
2022-12-08T18:37:34.600Z,3.18
2022-12-08T18:40:00.749Z,3.13
2022-12-08T18:42:26.933Z,3.08
2022-12-08T18:44:53.060Z,3.05
2022-12-08T18:47:19.266Z,3.01
2022-12-08T18:49:45.417Z,2.99
2022-12-08T18:52:11.592Z,3.04
2022-12-08T18:55:04.767Z,3.00
2022-12-08T18:57:23.939Z,2.99
2022-12-08T18:59:50.073Z,3.01
2022-12-08T19:02:16.319Z,3.00
2022-12-08T19:04:42.539Z,2.96
2022-12-08T19:07:08.720Z,2.95
2022-12-08T19:09:34.890Z,2.99
2022-12-08T19:12:01.073Z,2.99
2022-12-08T19:14:28.565Z,2.99
2022-12-08T19:16:54.995Z,2.99
2022-12-08T19:19:21.178Z,2.99
2022-12-08T19:21:47.290Z,2.97
2022-12-08T19:24:13.476Z,2.97
2022-12-08T19:26:39.634Z,2.99
2022-12-08T19:29:05.797Z,2.99
2022-12-08T19:31:32.068Z,2.99
2022-12-08T19:33:58.324Z,3.01
2022-12-08T19:36:24.541Z,3.05
2022-12-08T19:38:50.680Z,3.06
2022-12-08T19:41:16.791Z,3.09
2022-12-08T19:43:43.003Z,3.07
2022-12-08T19:46:09.221Z,3.13
2022-12-08T19:48:35.526Z,3.09
2022-12-08T19:51:01.677Z,2.94
2022-12-08T19:53:27.789Z,3.03
2022-12-08T19:55:54.025Z,2.98
2022-12-08T19:58:20.197Z,2.98
2022-12-08T20:00:46.382Z,2.96
2022-12-08T20:03:12.567Z,2.93
2022-12-08T20:05:38.739Z,2.94
2022-12-08T20:08:05.063Z,2.93
2022-12-08T20:10:31.311Z,2.95
2022-12-08T20:12:57.550Z,2.92
2022-12-08T20:15:23.774Z,2.91
2022-12-08T20:17:50.016Z,2.94
2022-12-08T20:20:16.237Z,2.92
2022-12-08T20:22:42.441Z,2.93
2022-12-08T20:25:12.758Z,2.91
2022-12-08T20:27:39.572Z,2.89
2022-12-08T20:30:05.784Z,2.86
2022-12-08T20:32:31.950Z,2.89
2022-12-08T20:34:58.091Z,2.86
2022-12-08T20:37:24.271Z,2.84
2022-12-08T20:39:50.473Z,2.88
2022-12-08T20:42:16.635Z,2.84
2022-12-08T20:44:42.799Z,2.82
2022-12-08T20:47:09.048Z,2.77
2022-12-08T20:49:35.340Z,2.76
2022-12-08T20:52:01.500Z,2.82
2022-12-08T20:54:28.067Z,2.83
2022-12-08T20:56:54.458Z,2.80
2022-12-08T20:59:20.811Z,2.78
2022-12-08T21:01:47.224Z,2.83
2022-12-08T21:04:13.645Z,2.78
2022-12-08T21:06:39.984Z,2.78
2022-12-08T21:09:06.340Z,2.77
2022-12-08T21:11:32.920Z,2.78
2022-12-08T21:13:59.149Z,2.78
2022-12-08T21:16:25.523Z,2.77
2022-12-08T21:18:51.748Z,2.75
2022-12-08T21:21:17.966Z,2.72
2022-12-08T21:23:44.183Z,2.72
2022-12-08T21:26:10.475Z,2.73
2022-12-08T21:28:36.760Z,2.73
2022-12-08T21:31:03.084Z,2.77
2022-12-08T21:33:29.436Z,2.80
2022-12-08T21:35:55.982Z,2.85
2022-12-08T21:38:22.211Z,2.80
2022-12-08T21:40:48.560Z,2.77
2022-12-08T21:43:14.901Z,2.73
2022-12-08T21:45:41.197Z,2.70
2022-12-08T21:48:11.422Z,2.70
2022-12-08T21:50:38.335Z,2.63
2022-12-08T21:53:04.594Z,2.61
2022-12-08T21:55:30.754Z,2.58
2022-12-08T21:57:56.958Z,2.58
2022-12-08T22:00:23.678Z,2.55
2022-12-08T22:02:50.163Z,2.52
2022-12-08T22:05:16.452Z,2.51
2022-12-08T22:07:42.740Z,2.51
2022-12-08T22:10:09.778Z,2.60
2022-12-08T22:12:36.463Z,2.57
2022-12-08T22:15:02.816Z,2.52
2022-12-08T22:17:29.099Z,2.53
2022-12-08T22:19:55.703Z,2.50
2022-12-08T22:22:21.921Z,2.53
2022-12-08T22:24:48.027Z,2.57
2022-12-08T22:27:14.307Z,2.49
2022-12-08T22:29:40.634Z,2.46
2022-12-08T22:32:06.809Z,2.43
2022-12-08T22:34:33.206Z,2.43
2022-12-08T22:36:59.353Z,2.42
2022-12-08T22:39:25.474Z,2.42
2022-12-08T22:41:51.597Z,2.42
2022-12-08T22:44:17.703Z,2.41
2022-12-08T22:46:44.076Z,2.43
2022-12-08T22:49:10.223Z,2.42
2022-12-08T22:51:36.374Z,2.39
2022-12-08T22:54:02.507Z,2.38
2022-12-08T22:56:28.606Z,2.39
2022-12-08T22:58:54.790Z,2.39
2022-12-08T23:01:21.004Z,2.37
2022-12-08T23:03:47.364Z,2.38
2022-12-08T23:06:13.700Z,2.37
2022-12-08T23:08:39.966Z,2.33
2022-12-08T23:11:06.219Z,2.33
2022-12-08T23:13:32.365Z,2.32
2022-12-08T23:15:58.744Z,2.29
2022-12-08T23:18:24.893Z,2.32
2022-12-08T23:20:51.125Z,2.27
2022-12-08T23:23:17.271Z,2.22
2022-12-08T23:25:43.385Z,2.22
2022-12-08T23:28:09.706Z,2.24
2022-12-08T23:30:35.899Z,2.26
2022-12-08T23:33:02.207Z,2.06
2022-12-08T23:35:28.641Z,2.27
2022-12-08T23:37:54.784Z,2.30
2022-12-08T23:40:20.890Z,2.30
2022-12-08T23:42:47.101Z,2.27
2022-12-08T23:45:13.407Z,2.21
2022-12-08T23:47:39.550Z,2.19
2022-12-08T23:50:06.140Z,2.15
2022-12-08T23:52:32.671Z,2.28
2022-12-08T23:54:58.803Z,2.18
2022-12-08T23:57:24.924Z,2.16
2022-12-08T23:59:51.126Z,2.13
